createdAt,value
2018-12-17T00:02:03.701Z,37.58
2018-12-17T00:07:10.147Z,38.50
2018-12-17T00:09:36.269Z,41.63
2018-12-17T00:12:02.696Z,44.90
2018-12-17T00:14:35.841Z,40.60
2018-12-17T00:17:02.037Z,35.87
2018-12-17T00:19:28.240Z,40.70
2018-12-17T00:21:54.476Z,41.60
2018-12-17T00:24:20.889Z,41.73
2018-12-17T00:26:47.115Z,37.53
2018-12-17T00:29:13.314Z,43.43
2018-12-17T00:31:46.450Z,40.87
2018-12-17T00:34:12.611Z,43.07
2018-12-17T00:36:38.893Z,39.70
2018-12-17T00:39:06.039Z,38.90
2018-12-17T00:41:32.323Z,42.43
2018-12-17T00:43:58.486Z,38.57
2018-12-17T00:46:24.760Z,37.15
2018-12-17T00:48:51.063Z,42.60
2018-12-17T00:51:17.613Z,43.97
2018-12-17T00:53:43.834Z,40.03
2018-12-17T00:56:10.143Z,40.40
2018-12-17T00:58:36.452Z,36.13
2018-12-17T01:01:02.949Z,40.53
2018-12-17T01:03:29.187Z,39.70
2018-12-17T01:05:55.501Z,40.00
2018-12-17T01:08:21.675Z,39.17
2018-12-17T01:10:47.891Z,44.47
2018-12-17T01:13:14.120Z,38.07
2018-12-17T01:15:40.432Z,43.15
2018-12-17T01:18:06.680Z,44.37
2018-12-17T01:20:32.936Z,42.63
2018-12-17T01:22:59.060Z,39.93
2018-12-17T01:25:25.394Z,44.10
2018-12-17T01:27:51.746Z,42.90
2018-12-17T01:30:24.989Z,38.40
2018-12-17T01:32:51.379Z,39.00
2018-12-17T01:35:17.641Z,44.30
2018-12-17T01:37:43.841Z,41.70
2018-12-17T01:40:10.290Z,43.20
2018-12-17T01:42:36.455Z,41.50
2018-12-17T01:45:04.113Z,44.27
2018-12-17T01:47:30.225Z,37.70
2018-12-17T01:49:56.467Z,46.20
2018-12-17T01:52:22.594Z,41.40
2018-12-17T01:54:48.754Z,43.57
2018-12-17T01:57:14.886Z,45.53
2018-12-17T01:59:41.237Z,42.65
2018-12-17T02:02:07.869Z,42.30
2018-12-17T02:04:34.091Z,43.85
2018-12-17T02:07:00.403Z,40.50
2018-12-17T02:09:26.542Z,43.30
2018-12-17T02:11:52.634Z,38.97
2018-12-17T02:14:18.829Z,45.88
2018-12-17T02:16:44.995Z,46.37
2018-12-17T02:19:11.339Z,46.83
2018-12-17T02:21:37.763Z,45.00
2018-12-17T02:24:04.078Z,39.97
2018-12-17T02:26:30.378Z,43.23
2018-12-17T02:28:56.497Z,42.23
2018-12-17T02:31:22.602Z,42.90
2018-12-17T02:33:48.850Z,38.17
2018-12-17T02:36:14.963Z,43.90
2018-12-17T02:38:41.165Z,42.53
2018-12-17T02:41:07.393Z,41.57
2018-12-17T02:43:33.524Z,40.75
2018-12-17T02:46:06.656Z,39.20
2018-12-17T02:48:32.785Z,40.67
2018-12-17T02:50:59.066Z,41.90
2018-12-17T02:53:25.291Z,38.85
2018-12-17T02:55:51.536Z,50.43
2018-12-17T02:58:17.717Z,42.50
2018-12-17T03:00:44.093Z,44.85
2018-12-17T03:03:10.210Z,43.33
2018-12-17T03:05:36.449Z,35.53
2018-12-17T03:08:02.819Z,35.80
2018-12-17T03:10:29.070Z,30.27
2018-12-17T03:12:55.372Z,30.70
2018-12-17T03:15:21.559Z,36.23
2018-12-17T03:17:47.774Z,38.17
2018-12-17T03:20:13.899Z,31.93
2018-12-17T03:22:40.030Z,44.77
2018-12-17T03:25:06.305Z,45.50
2018-12-17T03:27:32.533Z,46.30
2018-12-17T03:29:58.729Z,49.45
2018-12-17T03:32:25.020Z,45.60
2018-12-17T03:34:51.420Z,42.98
2018-12-17T03:37:24.634Z,44.17
2018-12-17T03:39:50.830Z,42.43
2018-12-17T03:42:17.385Z,46.23
2018-12-17T03:44:43.507Z,42.57
2018-12-17T03:47:09.734Z,47.53
2018-12-17T03:49:35.957Z,42.47
2018-12-17T03:52:02.422Z,48.07
2018-12-17T03:54:28.779Z,39.93
2018-12-17T03:56:54.978Z,47.67
2018-12-17T03:59:21.188Z,41.37
2018-12-17T04:01:47.561Z,45.20
2018-12-17T04:04:13.662Z,42.88
2018-12-17T04:06:39.882Z,52.53
2018-12-17T04:09:06.083Z,45.10
2018-12-17T04:11:32.247Z,40.60
2018-12-17T04:13:58.421Z,45.38
2018-12-17T04:16:24.557Z,44.43
2018-12-17T04:18:50.769Z,40.40
2018-12-17T04:21:17.032Z,40.43
2018-12-17T04:23:43.244Z,42.33
2018-12-17T04:26:09.310Z,43.63
2018-12-17T04:28:35.470Z,43.75
2018-12-17T04:31:01.692Z,45.33
2018-12-17T04:33:27.870Z,41.60
2018-12-17T04:35:53.976Z,49.77
2018-12-17T04:38:20.069Z,41.90
2018-12-17T04:40:46.281Z,42.23
2018-12-17T04:43:12.494Z,46.53
2018-12-17T04:45:38.672Z,48.17
2018-12-17T04:48:04.824Z,43.70
2018-12-17T04:50:30.922Z,44.98
2018-12-17T04:52:57.180Z,40.12
2018-12-17T04:55:23.312Z,46.60
2018-12-17T04:57:50.030Z,45.17
2018-12-17T05:00:16.298Z,46.27
2018-12-17T05:02:42.434Z,43.67
2018-12-17T05:05:08.764Z,43.55
2018-12-17T05:07:34.909Z,40.73
2018-12-17T05:10:01.296Z,41.80
2018-12-17T05:12:27.558Z,42.30
2018-12-17T05:14:53.841Z,39.17
2018-12-17T05:17:20.091Z,43.07
2018-12-17T05:19:46.554Z,21.40
2018-12-17T05:22:12.790Z,44.47
2018-12-17T05:24:39.065Z,45.73
2018-12-17T05:27:05.285Z,46.13
2018-12-17T05:29:31.552Z,40.63
2018-12-17T05:31:57.885Z,45.37
2018-12-17T05:34:24.199Z,41.47
2018-12-17T05:36:50.500Z,43.20
2018-12-17T05:39:16.672Z,45.50
2018-12-17T05:41:43.082Z,42.98
2018-12-17T05:44:09.431Z,42.77
2018-12-17T05:46:36.658Z,40.38
2018-12-17T05:49:03.601Z,39.23
2018-12-17T05:51:30.164Z,39.07
2018-12-17T05:53:56.306Z,37.53
2018-12-17T05:56:22.634Z,43.83
2018-12-17T05:58:48.791Z,41.80
2018-12-17T06:01:15.019Z,27.07
2018-12-17T06:03:41.354Z,21.00
2018-12-17T06:06:07.699Z,27.17
2018-12-17T06:08:34.157Z,20.63
2018-12-17T06:11:00.655Z,17.02
2018-12-17T06:13:26.807Z,21.53
2018-12-17T06:15:52.974Z,20.43
2018-12-17T06:18:19.269Z,23.60
2018-12-17T06:20:46.345Z,23.73
2018-12-17T06:23:12.467Z,18.80
2018-12-17T06:25:38.607Z,20.60
2018-12-17T06:28:04.789Z,14.75
2018-12-17T06:30:31.007Z,19.43
2018-12-17T06:32:57.346Z,22.47
2018-12-17T06:35:23.655Z,15.93
2018-12-17T06:37:49.990Z,15.70
2018-12-17T06:40:16.112Z,20.20
2018-12-17T06:42:42.255Z,16.60
2018-12-17T06:45:08.522Z,20.70
2018-12-17T06:47:34.722Z,17.67
2018-12-17T06:50:01.028Z,18.80
2018-12-17T06:52:27.191Z,18.10
2018-12-17T06:54:54.885Z,15.47
2018-12-17T06:57:21.427Z,17.42
2018-12-17T06:59:47.689Z,21.77
2018-12-17T07:02:21.265Z,13.93
2018-12-17T07:04:47.486Z,15.67
2018-12-17T07:07:13.802Z,18.47
2018-12-17T07:09:39.901Z,19.87
2018-12-17T07:12:06.249Z,13.67
2018-12-17T07:14:36.468Z,18.00
2018-12-17T07:17:02.324Z,18.03
2018-12-17T07:19:28.579Z,15.97
2018-12-17T07:21:54.776Z,15.83
2018-12-17T07:24:21.199Z,15.03
2018-12-17T07:26:47.325Z,16.55
2018-12-17T07:29:13.552Z,17.90
2018-12-17T07:31:39.637Z,17.00
2018-12-17T07:34:05.860Z,15.57
2018-12-17T07:36:32.068Z,15.98
2018-12-17T07:38:58.186Z,20.83
2018-12-17T07:41:24.267Z,14.27
2018-12-17T07:43:50.631Z,17.20
2018-12-17T07:46:16.859Z,15.93
2018-12-17T07:48:43.852Z,15.00
2018-12-17T07:51:10.078Z,16.35
2018-12-17T07:53:36.229Z,18.40
2018-12-17T07:56:02.517Z,16.50
2018-12-17T07:58:28.634Z,20.40
2018-12-17T08:00:54.726Z,17.33
2018-12-17T08:03:20.966Z,20.03
2018-12-17T08:05:47.274Z,17.50
2018-12-17T08:08:13.346Z,16.43
2018-12-17T08:10:39.605Z,18.00
2018-12-17T08:13:06.323Z,15.43
2018-12-17T08:15:32.623Z,21.63
2018-12-17T08:18:14.386Z,20.00
2018-12-17T08:20:40.573Z,18.10
2018-12-17T08:23:06.813Z,20.53
2018-12-17T08:25:38.551Z,22.25
2018-12-17T08:28:07.019Z,21.93
2018-12-17T08:30:33.206Z,23.60
2018-12-17T08:32:59.309Z,21.47
2018-12-17T08:35:25.410Z,16.82
2018-12-17T08:37:51.498Z,20.53
2018-12-17T08:40:17.654Z,18.03
2018-12-17T08:42:43.781Z,18.97
2018-12-17T08:45:10.021Z,19.65
2018-12-17T08:47:36.255Z,16.90
2018-12-17T08:50:03.791Z,19.55
2018-12-17T08:52:36.869Z,20.43
2018-12-17T08:55:03.548Z,24.23
2018-12-17T08:57:29.886Z,28.67
2018-12-17T08:59:56.205Z,37.30
2018-12-17T09:02:22.431Z,39.97
2018-12-17T09:04:48.686Z,34.43
2018-12-17T09:07:15.106Z,34.80
2018-12-17T09:09:41.446Z,45.03
2018-12-17T09:12:07.782Z,37.13
2018-12-17T09:14:34.084Z,43.30
2018-12-17T09:17:00.459Z,46.37
2018-12-17T09:19:26.571Z,39.75
2018-12-17T09:21:52.715Z,39.53
2018-12-17T09:24:19.029Z,36.87
2018-12-17T09:26:45.254Z,47.08
2018-12-17T09:29:11.365Z,35.83
2018-12-17T09:31:37.552Z,35.67
2018-12-17T09:34:03.761Z,39.80
2018-12-17T09:36:30.026Z,46.98
2018-12-17T09:38:56.192Z,35.50
2018-12-17T09:41:22.450Z,44.67
2018-12-17T09:43:48.776Z,38.55
2018-12-17T09:46:14.891Z,45.03
2018-12-17T09:48:41.107Z,44.80
2018-12-17T09:51:07.531Z,42.67
2018-12-17T09:53:33.710Z,42.17
2018-12-17T09:55:59.825Z,40.60
2018-12-17T09:58:25.930Z,41.58
2018-12-17T10:00:52.237Z,46.57
2018-12-17T10:03:18.541Z,46.97
2018-12-17T10:05:53.089Z,41.97
2018-12-17T10:08:19.302Z,47.77
2018-12-17T10:10:45.561Z,44.20
2018-12-17T10:13:11.667Z,42.40
2018-12-17T10:15:38.078Z,42.83
2018-12-17T10:18:04.305Z,42.03
2018-12-17T10:23:31.097Z,43.37
2018-12-17T10:25:57.278Z,44.77
2018-12-17T10:28:23.425Z,51.20
2018-12-17T10:30:49.546Z,56.60
2018-12-17T10:33:15.705Z,50.50
2018-12-17T10:42:00.985Z,52.83
2018-12-17T10:44:28.076Z,50.83
2018-12-17T10:46:54.523Z,49.13
2018-12-17T10:49:20.730Z,47.17
2018-12-17T10:51:47.081Z,50.17
2018-12-17T10:54:13.253Z,47.93
2018-12-17T10:56:39.557Z,50.33
2018-12-17T10:59:05.771Z,51.40
2018-12-17T11:01:38.002Z,51.10
2018-12-17T11:04:06.414Z,49.43
2018-12-17T11:06:32.811Z,48.90
2018-12-17T11:08:59.292Z,52.53
2018-12-17T11:11:25.561Z,51.53
2018-12-17T11:13:51.794Z,48.37
2018-12-17T11:18:57.656Z,50.80
2018-12-17T11:21:23.883Z,50.07
2018-12-17T11:23:50.204Z,44.83
2018-12-17T11:26:16.499Z,47.50
2018-12-17T11:28:42.681Z,43.60
2018-12-17T11:31:08.788Z,46.17
2018-12-17T11:33:35.015Z,46.20
2018-12-17T11:38:40.440Z,42.63
2018-12-17T11:41:07.437Z,46.25
2018-12-17T11:43:33.575Z,40.63
2018-12-17T11:46:01.735Z,40.00
2018-12-17T11:48:28.271Z,41.67
2018-12-17T11:50:54.398Z,39.53
2018-12-17T11:53:20.643Z,40.80
2018-12-17T11:55:46.858Z,41.03
2018-12-17T11:58:13.184Z,43.00
2018-12-17T12:00:40.734Z,41.20
2018-12-17T12:03:06.869Z,38.23
2018-12-17T12:05:33.136Z,41.80
2018-12-17T12:07:59.266Z,46.68
2018-12-17T12:10:25.526Z,58.63
2018-12-17T12:12:51.713Z,45.07
2018-12-17T12:15:18.117Z,48.63
2018-12-17T12:17:44.243Z,45.57
2018-12-17T12:20:10.365Z,46.13
2018-12-17T12:22:36.642Z,52.10
2018-12-17T12:25:04.402Z,54.93
2018-12-17T12:27:30.857Z,47.13
2018-12-17T12:29:57.410Z,46.23
2018-12-17T12:32:23.701Z,53.57
2018-12-17T12:34:50.016Z,47.60
2018-12-17T12:37:16.141Z,51.08
2018-12-17T12:39:42.291Z,44.90
2018-12-17T12:42:09.457Z,50.27
2018-12-17T12:44:35.660Z,44.77
2018-12-17T12:47:02.001Z,44.88
2018-12-17T12:49:28.076Z,45.30
2018-12-17T12:51:54.268Z,41.37
2018-12-17T12:54:20.397Z,44.55
2018-12-17T12:56:46.590Z,45.97
2018-12-17T12:59:12.683Z,38.80
2018-12-17T13:01:38.816Z,38.70
2018-12-17T13:04:05.123Z,39.67
2018-12-17T13:06:31.685Z,41.97
2018-12-17T13:08:57.770Z,43.30
2018-12-17T13:11:23.877Z,40.93
2018-12-17T13:13:49.999Z,42.40
2018-12-17T13:16:16.124Z,42.43
2018-12-17T13:18:42.244Z,39.77
2018-12-17T13:21:08.465Z,38.60
2018-12-17T13:23:34.584Z,40.58
2018-12-17T13:26:00.695Z,48.38
2018-12-17T13:28:26.762Z,46.60
2018-12-17T13:30:52.894Z,45.33
2018-12-17T13:33:19.000Z,41.50
2018-12-17T13:35:45.201Z,41.48
2018-12-17T13:38:12.570Z,47.93
2018-12-17T13:40:39.595Z,52.60
2018-12-17T13:45:45.090Z,56.60
2018-12-17T13:48:11.181Z,50.40
2018-12-17T13:50:39.574Z,49.98
2018-12-17T13:53:12.116Z,45.17
2018-12-17T13:55:38.294Z,48.80
2018-12-17T13:58:05.359Z,47.97
2018-12-17T14:00:31.829Z,49.45
2018-12-17T14:02:58.100Z,47.23
2018-12-17T14:05:25.412Z,50.40
2018-12-17T14:07:52.679Z,50.00
2018-12-17T14:13:17.067Z,52.47
2018-12-17T14:15:50.137Z,56.08
2018-12-17T14:18:23.622Z,55.43
2018-12-17T14:21:02.966Z,51.03
2018-12-17T14:23:29.150Z,50.07
2018-12-17T14:25:55.394Z,52.27
2018-12-17T14:28:21.548Z,51.10
2018-12-17T14:30:47.803Z,49.53
2018-12-17T14:33:14.093Z,62.53
2018-12-17T14:35:42.373Z,49.93
2018-12-17T14:38:08.689Z,52.50
2018-12-17T14:40:34.790Z,51.87
2018-12-17T14:43:00.926Z,53.10
2018-12-17T14:45:27.170Z,54.43
2018-12-17T14:47:53.402Z,55.20
2018-12-17T14:50:19.782Z,53.03
2018-12-17T14:52:45.954Z,64.60
2018-12-17T14:55:12.249Z,59.27
2018-12-17T14:57:38.617Z,59.00
2018-12-17T15:00:09.761Z,61.57
2018-12-17T15:02:36.064Z,49.90
2018-12-17T15:05:06.414Z,51.60
2018-12-17T15:07:32.751Z,57.40
2018-12-17T15:09:59.078Z,49.88
2018-12-17T15:12:25.987Z,66.77
2018-12-17T15:14:52.106Z,52.47
2018-12-17T15:17:18.436Z,51.20
2018-12-17T15:19:51.973Z,60.00
2018-12-17T15:22:18.161Z,54.90
2018-12-17T15:24:44.294Z,59.40
2018-12-17T15:27:10.511Z,60.92
2018-12-17T15:29:36.677Z,58.00
2018-12-17T15:32:03.655Z,60.60
2018-12-17T15:34:29.770Z,65.97
2018-12-17T15:36:55.982Z,54.77
2018-12-17T15:39:22.194Z,58.50
2018-12-17T15:41:48.561Z,59.10
2018-12-17T15:44:14.676Z,58.00
2018-12-17T15:46:40.907Z,62.43
2018-12-17T15:49:07.032Z,58.10
2018-12-17T15:51:33.803Z,60.40
2018-12-17T15:54:00.210Z,69.47
2018-12-17T15:56:27.812Z,58.93
2018-12-17T15:58:53.932Z,59.23
2018-12-17T16:01:20.233Z,65.43
2018-12-17T16:03:47.469Z,60.38
2018-12-17T16:06:14.715Z,59.33
2018-12-17T16:08:41.506Z,64.70
2018-12-17T16:11:07.750Z,65.27
2018-12-17T16:13:33.972Z,63.50
2018-12-17T16:16:00.557Z,61.10
2018-12-17T16:18:26.805Z,60.83
2018-12-17T16:20:53.896Z,64.10
2018-12-17T16:23:20.163Z,56.93
2018-12-17T16:25:46.426Z,65.80
2018-12-17T16:28:12.721Z,70.93
2018-12-17T16:30:38.871Z,56.50
2018-12-17T16:33:05.185Z,62.47
2018-12-17T16:35:31.738Z,63.00
2018-12-17T16:37:57.920Z,62.93
2018-12-17T16:40:24.478Z,69.50
2018-12-17T16:42:50.590Z,65.93
2018-12-17T16:45:17.745Z,64.77
2018-12-17T16:47:43.960Z,71.43
2018-12-17T16:50:10.393Z,61.58
2018-12-17T16:52:36.552Z,72.30
2018-12-17T16:55:03.499Z,68.63
2018-12-17T16:57:29.770Z,70.07
2018-12-17T16:59:55.995Z,69.33
2018-12-17T17:02:22.407Z,61.23
2018-12-17T17:04:48.640Z,66.53
2018-12-17T17:07:14.877Z,58.73
2018-12-17T17:09:41.260Z,64.90
2018-12-17T17:12:07.613Z,75.93
2018-12-17T17:14:34.309Z,66.00
2018-12-17T17:17:00.757Z,63.67
2018-12-17T17:19:33.915Z,70.03
2018-12-17T17:22:00.272Z,68.97
2018-12-17T17:24:26.990Z,66.25
2018-12-17T17:26:53.467Z,71.47
2018-12-17T17:29:21.466Z,66.93
2018-12-17T17:31:47.742Z,72.00
2018-12-17T17:34:13.972Z,65.97
2018-12-17T17:36:40.288Z,67.70
2018-12-17T17:39:08.065Z,69.00
2018-12-17T17:41:35.104Z,63.33
2018-12-17T17:44:01.501Z,79.23
2018-12-17T17:46:27.752Z,63.70
2018-12-17T17:48:56.440Z,68.07
2018-12-17T17:51:29.513Z,64.37
2018-12-17T17:53:56.294Z,60.90
2018-12-17T17:56:23.677Z,62.10
2018-12-17T17:58:51.016Z,61.30
2018-12-17T18:01:17.357Z,67.53
2018-12-17T18:03:43.570Z,73.40
2018-12-17T18:06:16.382Z,67.67
2018-12-17T18:08:42.058Z,65.23
2018-12-17T18:11:08.265Z,72.67
2018-12-17T18:13:34.492Z,70.95
2018-12-17T18:16:00.729Z,69.93
2018-12-17T18:18:27.671Z,66.40
2018-12-17T18:20:53.876Z,66.83
2018-12-17T18:23:20.876Z,66.67
2018-12-17T18:25:47.180Z,74.63
2018-12-17T18:28:13.474Z,67.80
2018-12-17T18:30:39.612Z,63.37
2018-12-17T18:33:06.249Z,76.03
2018-12-17T18:35:34.160Z,65.53
2018-12-17T18:38:00.658Z,64.27
2018-12-17T18:40:27.003Z,62.13
2018-12-17T18:42:53.884Z,63.20
2018-12-17T18:45:20.198Z,78.50
2018-12-17T18:47:47.287Z,70.65
2018-12-17T18:50:13.575Z,68.33
2018-12-17T18:52:39.721Z,63.57
2018-12-17T18:55:06.069Z,68.67
2018-12-17T18:57:32.439Z,65.27
2018-12-17T18:59:58.557Z,68.17
2018-12-17T19:02:24.763Z,64.07
2018-12-17T19:04:50.965Z,66.20
2018-12-17T19:07:17.412Z,61.87
2018-12-17T19:09:43.730Z,63.05
2018-12-17T19:12:09.958Z,58.00
2018-12-17T19:14:36.129Z,64.43
2018-12-17T19:17:02.406Z,62.90
2018-12-17T19:19:28.580Z,60.83
2018-12-17T19:21:54.841Z,59.67
2018-12-17T19:24:21.076Z,56.67
2018-12-17T19:26:47.314Z,62.87
2018-12-17T19:29:13.539Z,63.40
2018-12-17T19:31:39.652Z,55.30
2018-12-17T19:34:05.913Z,56.45
2018-12-17T19:36:32.345Z,56.60
2018-12-17T19:38:58.638Z,60.33
2018-12-17T19:41:24.761Z,60.67
2018-12-17T19:43:51.051Z,57.70
2018-12-17T19:46:17.195Z,48.07
2018-12-17T19:48:43.445Z,56.55
2018-12-17T19:51:09.656Z,51.73
2018-12-17T19:53:35.899Z,53.57
2018-12-17T19:56:03.568Z,54.63
2018-12-17T19:58:29.895Z,52.23
2018-12-17T20:00:56.087Z,53.10
2018-12-17T20:03:22.587Z,49.07
2018-12-17T20:05:48.782Z,50.43
2018-12-17T20:08:15.125Z,50.13
2018-12-17T20:10:42.491Z,49.93
2018-12-17T20:13:15.565Z,48.53
2018-12-17T20:15:42.822Z,34.47
2018-12-17T20:18:09.065Z,26.00
2018-12-17T20:20:35.398Z,21.73
2018-12-17T20:23:01.534Z,16.57
2018-12-17T20:25:28.187Z,12.83
2018-12-17T20:27:54.855Z,13.23
2018-12-17T20:30:27.499Z,12.03
2018-12-17T20:32:55.237Z,15.70
2018-12-17T20:35:28.745Z,10.33
2018-12-17T20:37:55.576Z,13.10
2018-12-17T20:40:21.812Z,12.20
2018-12-17T20:42:48.656Z,17.40
2018-12-17T20:45:14.941Z,14.70
2018-12-17T20:47:41.547Z,10.73
2018-12-17T20:50:08.554Z,14.47
2018-12-17T20:52:35.484Z,12.73
2018-12-17T20:55:01.952Z,15.97
2018-12-17T21:00:11.718Z,17.60
2018-12-17T21:02:38.029Z,14.00
2018-12-17T21:05:04.660Z,13.40
2018-12-17T21:07:30.865Z,22.27
2018-12-17T21:10:05.984Z,25.47
2018-12-17T21:12:32.161Z,27.03
2018-12-17T21:14:58.328Z,31.43
2018-12-17T21:17:24.855Z,35.47
2018-12-17T21:19:52.030Z,46.27
2018-12-17T21:22:18.204Z,45.07
2018-12-17T21:24:51.378Z,40.08
2018-12-17T21:27:17.751Z,49.03
2018-12-17T21:29:43.892Z,38.13
2018-12-17T21:32:09.999Z,41.20
2018-12-17T21:34:36.135Z,53.33
2018-12-17T21:37:02.494Z,39.30
2018-12-17T21:39:28.746Z,41.10
2018-12-17T21:41:54.973Z,41.97
2018-12-17T21:44:21.129Z,50.80
2018-12-17T21:46:47.531Z,45.58
2018-12-17T21:49:13.698Z,37.27
2018-12-17T21:51:39.999Z,44.07
2018-12-17T21:54:06.133Z,45.08
2018-12-17T21:56:33.074Z,41.50
2018-12-17T22:01:32.085Z,39.70
2018-12-17T22:03:58.479Z,50.63
2018-12-17T22:06:24.704Z,45.00
2018-12-17T22:08:50.810Z,40.70
2018-12-17T22:11:17.034Z,48.13
2018-12-17T22:13:43.239Z,37.15
2018-12-17T22:16:09.485Z,37.23
2018-12-17T22:18:35.598Z,41.97
2018-12-17T22:21:01.805Z,45.28
2018-12-17T22:23:27.942Z,42.10
2018-12-17T22:25:54.222Z,37.10
2018-12-17T22:28:20.357Z,38.78
2018-12-17T22:30:46.589Z,27.23
2018-12-17T22:33:20.115Z,28.90
2018-12-17T22:35:46.716Z,14.50
2018-12-17T22:38:12.953Z,17.85
2018-12-17T22:40:39.789Z,16.93
2018-12-17T22:43:05.965Z,27.07
2018-12-17T22:45:32.112Z,19.83
2018-12-17T22:50:36.119Z,32.10
2018-12-17T22:53:02.725Z,39.93
2018-12-17T22:55:29.207Z,26.90
2018-12-17T22:57:55.446Z,35.73
2018-12-17T23:00:22.365Z,32.27
2018-12-17T23:02:48.621Z,36.80
2018-12-17T23:05:15.854Z,36.37
2018-12-17T23:07:42.062Z,36.33
2018-12-17T23:10:26.811Z,34.13
2018-12-17T23:13:11.626Z,35.00
2018-12-17T23:15:56.425Z,39.13
2018-12-17T23:18:22.372Z,29.50
2018-12-17T23:20:48.581Z,31.07
2018-12-17T23:23:15.310Z,39.85
2018-12-17T23:25:41.513Z,32.40
2018-12-17T23:28:07.988Z,21.93
2018-12-17T23:30:34.431Z,14.63
2018-12-17T23:33:00.702Z,22.13
2018-12-17T23:35:27.029Z,22.37
2018-12-17T23:37:53.361Z,25.17
2018-12-17T23:40:19.472Z,22.40
2018-12-17T23:42:45.708Z,25.20
2018-12-17T23:45:17.228Z,26.02
2018-12-17T23:47:43.313Z,29.80
2018-12-17T23:50:09.426Z,20.20
2018-12-17T23:52:35.653Z,16.10
2018-12-17T23:55:02.279Z,15.60
2018-12-17T23:57:28.408Z,10.13
2018-12-17T23:59:54.661Z,20.47
